sensor_id;sensor_type;location;lat;lon;timestamp;pressure;altitude;pressure_sealevel;temperature;humidity
77526;BME280;66627;29.424;-98.496;2023-05-10T00:00:36;98654.21;;;23.08;59.16
77526;BME280;66627;29.424;-98.496;2023-05-10T00:03:02;98652.21;;;22.98;59.34
77526;BME280;66627;29.424;-98.496;2023-05-10T00:05:28;98650.73;;;23.08;59.17
77526;BME280;66627;29.424;-98.496;2023-05-10T00:07:53;98648.61;;;23.30;59.15
77526;BME280;66627;29.424;-98.496;2023-05-10T00:10:18;98641.17;;;23.49;58.84
77526;BME280;66627;29.424;-98.496;2023-05-10T00:12:44;98637.95;;;22.96;59.11
77526;BME280;66627;29.424;-98.496;2023-05-10T00:15:10;98643.51;;;23.38;59.03
77526;BME280;66627;29.424;-98.496;2023-05-10T00:17:35;98643.86;;;22.44;60.27
77526;BME280;66627;29.424;-98.496;2023-05-10T00:20:00;98641.30;;;22.50;59.73
77526;BME280;66627;29.424;-98.496;2023-05-10T00:22:25;98641.39;;;22.62;59.74
77526;BME280;66627;29.424;-98.496;2023-05-10T00:24:50;98642.27;;;22.84;58.44
77526;BME280;66627;29.424;-98.496;2023-05-10T00:27:15;98644.37;;;22.45;60.14
77526;BME280;66627;29.424;-98.496;2023-05-10T00:29:41;98634.74;;;22.61;59.77
77526;BME280;66627;29.424;-98.496;2023-05-10T00:32:06;98624.40;;;22.99;59.63
77526;BME280;66627;29.424;-98.496;2023-05-10T00:34:32;98619.22;;;23.22;58.64
77526;BME280;66627;29.424;-98.496;2023-05-10T00:36:57;98615.73;;;22.69;58.84
77526;BME280;66627;29.424;-98.496;2023-05-10T00:39:23;98613.61;;;22.83;58.58
77526;BME280;66627;29.424;-98.496;2023-05-10T00:41:49;98612.50;;;22.84;57.80
77526;BME280;66627;29.424;-98.496;2023-05-10T00:44:15;98615.38;;;22.66;59.55
77526;BME280;66627;29.424;-98.496;2023-05-10T00:46:39;98620.11;;;23.19;58.89
77526;BME280;66627;29.424;-98.496;2023-05-10T00:49:04;98622.04;;;22.28;59.58
77526;BME280;66627;29.424;-98.496;2023-05-10T00:51:30;98623.52;;;22.66;58.92
77526;BME280;66627;29.424;-98.496;2023-05-10T00:53:56;98627.28;;;21.96;60.20
77526;BME280;66627;29.424;-98.496;2023-05-10T00:56:21;98627.94;;;22.84;58.65
77526;BME280;66627;29.424;-98.496;2023-05-10T00:58:46;98632.00;;;22.43;59.22
77526;BME280;66627;29.424;-98.496;2023-05-10T01:01:13;98635.71;;;21.49;62.01
77526;BME280;66627;29.424;-98.496;2023-05-10T01:03:38;98638.07;;;22.11;61.11
77526;BME280;66627;29.424;-98.496;2023-05-10T01:06:04;98644.22;;;22.76;59.82
77526;BME280;66627;29.424;-98.496;2023-05-10T01:08:29;98650.14;;;21.55;61.17
77526;BME280;66627;29.424;-98.496;2023-05-10T01:10:55;98649.77;;;22.36;60.20
77526;BME280;66627;29.424;-98.496;2023-05-10T01:13:29;98646.29;;;23.01;58.84
77526;BME280;66627;29.424;-98.496;2023-05-10T01:15:45;98646.07;;;23.89;57.14
77526;BME280;66627;29.424;-98.496;2023-05-10T01:18:10;98644.33;;;23.32;58.06
77526;BME280;66627;29.424;-98.496;2023-05-10T01:20:40;98642.01;;;22.89;58.31
77526;BME280;66627;29.424;-98.496;2023-05-10T01:23:12;98640.86;;;23.19;58.25
77526;BME280;66627;29.424;-98.496;2023-05-10T01:30:37;98621.49;;;22.84;58.71
77526;BME280;66627;29.424;-98.496;2023-05-10T01:32:46;98622.46;;;23.27;58.20
77526;BME280;66627;29.424;-98.496;2023-05-10T01:35:12;98624.11;;;21.80;60.16
77526;BME280;66627;29.424;-98.496;2023-05-10T01:37:42;98626.82;;;21.15;62.12
77526;BME280;66627;29.424;-98.496;2023-05-10T01:40:03;98635.81;;;20.45;63.87
77526;BME280;66627;29.424;-98.496;2023-05-10T01:42:28;98645.12;;;20.60;64.06
77526;BME280;66627;29.424;-98.496;2023-05-10T01:44:56;98657.50;;;20.20;65.00
77526;BME280;66627;29.424;-98.496;2023-05-10T01:47:20;98665.37;;;22.14;59.99
77526;BME280;66627;29.424;-98.496;2023-05-10T01:49:45;98677.42;;;21.77;60.63
77526;BME280;66627;29.424;-98.496;2023-05-10T01:52:10;98685.03;;;21.40;60.88
77526;BME280;66627;29.424;-98.496;2023-05-10T01:54:34;98689.37;;;22.33;59.21
77526;BME280;66627;29.424;-98.496;2023-05-10T01:57:01;98693.46;;;22.51;59.23
77526;BME280;66627;29.424;-98.496;2023-05-10T01:59:22;98698.63;;;22.72;58.89
77526;BME280;66627;29.424;-98.496;2023-05-10T02:01:48;98706.89;;;22.39;58.96
77526;BME280;66627;29.424;-98.496;2023-05-10T02:04:15;98709.37;;;22.90;58.40
77526;BME280;66627;29.424;-98.496;2023-05-10T02:06:38;98719.40;;;23.22;57.69
77526;BME280;66627;29.424;-98.496;2023-05-10T02:09:03;98723.47;;;22.61;58.90
77526;BME280;66627;29.424;-98.496;2023-05-10T02:11:29;98729.16;;;22.98;58.43
77526;BME280;66627;29.424;-98.496;2023-05-10T02:13:54;98734.37;;;22.83;58.74
77526;BME280;66627;29.424;-98.496;2023-05-10T02:16:20;98734.06;;;22.64;58.50
77526;BME280;66627;29.424;-98.496;2023-05-10T02:18:45;98732.16;;;22.84;57.66
77526;BME280;66627;29.424;-98.496;2023-05-10T02:21:11;98732.73;;;22.45;57.98
77526;BME280;66627;29.424;-98.496;2023-05-10T02:23:36;98731.41;;;22.44;57.76
77526;BME280;66627;29.424;-98.496;2023-05-10T02:26:01;98729.86;;;22.71;57.22
77526;BME280;66627;29.424;-98.496;2023-05-10T02:28:26;98736.52;;;22.04;58.21
77526;BME280;66627;29.424;-98.496;2023-05-10T02:30:52;98745.18;;;22.30;58.14
77526;BME280;66627;29.424;-98.496;2023-05-10T02:33:17;98752.47;;;22.68;57.52
77526;BME280;66627;29.424;-98.496;2023-05-10T02:35:42;98749.22;;;22.28;58.13
77526;BME280;66627;29.424;-98.496;2023-05-10T02:38:09;98749.50;;;22.42;58.16
77526;BME280;66627;29.424;-98.496;2023-05-10T02:40:34;98748.13;;;22.57;57.90
77526;BME280;66627;29.424;-98.496;2023-05-10T02:43:01;98744.02;;;22.42;58.08
77526;BME280;66627;29.424;-98.496;2023-05-10T02:45:31;98739.46;;;22.90;56.98
77526;BME280;66627;29.424;-98.496;2023-05-10T02:47:50;98740.18;;;22.76;57.24
77526;BME280;66627;29.424;-98.496;2023-05-10T02:50:15;98742.13;;;23.18;56.62
77526;BME280;66627;29.424;-98.496;2023-05-10T02:52:44;98743.82;;;23.09;57.32
77526;BME280;66627;29.424;-98.496;2023-05-10T02:55:13;98748.13;;;22.78;57.53
77526;BME280;66627;29.424;-98.496;2023-05-10T02:57:33;98751.54;;;22.69;56.30
77526;BME280;66627;29.424;-98.496;2023-05-10T02:59:57;98753.24;;;22.88;56.67
77526;BME280;66627;29.424;-98.496;2023-05-10T03:02:23;98761.06;;;22.58;56.83
77526;BME280;66627;29.424;-98.496;2023-05-10T03:04:48;98762.50;;;23.10;57.17
77526;BME280;66627;29.424;-98.496;2023-05-10T03:07:14;98755.26;;;22.90;57.34
77526;BME280;66627;29.424;-98.496;2023-05-10T03:09:40;98742.42;;;23.07;57.15
77526;BME280;66627;29.424;-98.496;2023-05-10T03:12:10;98743.99;;;22.57;57.40
77526;BME280;66627;29.424;-98.496;2023-05-10T03:17:00;98738.88;;;22.42;58.36
77526;BME280;66627;29.424;-98.496;2023-05-10T03:19:27;98739.53;;;22.49;57.93
77526;BME280;66627;29.424;-98.496;2023-05-10T03:21:51;98742.13;;;22.42;57.90
77526;BME280;66627;29.424;-98.496;2023-05-10T03:24:13;98743.80;;;22.86;57.23
77526;BME280;66627;29.424;-98.496;2023-05-10T03:26:38;98747.91;;;22.50;57.87
77526;BME280;66627;29.424;-98.496;2023-05-10T03:29:04;98743.56;;;22.74;57.72
77526;BME280;66627;29.424;-98.496;2023-05-10T03:31:28;98733.17;;;22.74;58.00
77526;BME280;66627;29.424;-98.496;2023-05-10T03:33:54;98721.42;;;22.60;57.87
77526;BME280;66627;29.424;-98.496;2023-05-10T03:36:19;98717.47;;;22.15;57.98
77526;BME280;66627;29.424;-98.496;2023-05-10T03:38:44;98714.34;;;21.80;59.33
77526;BME280;66627;29.424;-98.496;2023-05-10T03:41:15;98711.45;;;22.19;58.13
77526;BME280;66627;29.424;-98.496;2023-05-10T03:43:35;98708.92;;;22.04;58.73
77526;BME280;66627;29.424;-98.496;2023-05-10T03:46:02;98712.06;;;22.34;58.13
77526;BME280;66627;29.424;-98.496;2023-05-10T03:48:26;98703.21;;;22.48;57.69
77526;BME280;66627;29.424;-98.496;2023-05-10T03:50:52;98702.37;;;22.05;58.79
77526;BME280;66627;29.424;-98.496;2023-05-10T03:53:17;98706.37;;;22.48;58.27
77526;BME280;66627;29.424;-98.496;2023-05-10T03:55:42;98711.34;;;22.36;58.29
77526;BME280;66627;29.424;-98.496;2023-05-10T03:58:12;98709.34;;;22.11;58.24
77526;BME280;66627;29.424;-98.496;2023-05-10T04:00:33;98704.81;;;22.39;58.10
77526;BME280;66627;29.424;-98.496;2023-05-10T04:02:59;98702.53;;;22.45;57.52
77526;BME280;66627;29.424;-98.496;2023-05-10T04:05:24;98703.04;;;22.53;58.20
77526;BME280;66627;29.424;-98.496;2023-05-10T04:07:49;98708.32;;;22.52;57.87
77526;BME280;66627;29.424;-98.496;2023-05-10T04:10:15;98715.86;;;22.46;58.01
77526;BME280;66627;29.424;-98.496;2023-05-10T04:12:40;98717.44;;;22.33;57.90
77526;BME280;66627;29.424;-98.496;2023-05-10T04:15:07;98718.30;;;22.20;58.25
77526;BME280;66627;29.424;-98.496;2023-05-10T04:17:32;98715.94;;;22.29;58.22
77526;BME280;66627;29.424;-98.496;2023-05-10T04:19:57;98717.02;;;22.29;58.23
77526;BME280;66627;29.424;-98.496;2023-05-10T04:22:22;98724.30;;;22.40;58.09
77526;BME280;66627;29.424;-98.496;2023-05-10T04:24:48;98727.09;;;22.08;58.32
77526;BME280;66627;29.424;-98.496;2023-05-10T04:27:13;98723.99;;;22.44;58.40
77526;BME280;66627;29.424;-98.496;2023-05-10T04:29:38;98719.52;;;22.35;59.03
77526;BME280;66627;29.424;-98.496;2023-05-10T04:32:04;98715.19;;;21.61;60.07
77526;BME280;66627;29.424;-98.496;2023-05-10T04:34:29;98711.77;;;21.46;60.36
77526;BME280;66627;29.424;-98.496;2023-05-10T04:36:55;98711.12;;;21.44;60.18
77526;BME280;66627;29.424;-98.496;2023-05-10T04:39:26;98701.18;;;21.98;59.62
77526;BME280;66627;29.424;-98.496;2023-05-10T04:41:46;98706.23;;;21.51;60.29
77526;BME280;66627;29.424;-98.496;2023-05-10T04:44:12;98707.67;;;22.26;59.59
77526;BME280;66627;29.424;-98.496;2023-05-10T04:46:42;98708.35;;;22.25;59.94
77526;BME280;66627;29.424;-98.496;2023-05-10T04:49:02;98706.25;;;21.69;60.45
77526;BME280;66627;29.424;-98.496;2023-05-10T04:51:33;98711.46;;;21.80;60.36
77526;BME280;66627;29.424;-98.496;2023-05-10T04:53:54;98707.48;;;22.22;60.15
77526;BME280;66627;29.424;-98.496;2023-05-10T04:56:19;98703.18;;;22.40;59.79
77526;BME280;66627;29.424;-98.496;2023-05-10T04:58:44;98700.86;;;22.35;59.38
77526;BME280;66627;29.424;-98.496;2023-05-10T05:01:09;98710.02;;;22.09;59.79
77526;BME280;66627;29.424;-98.496;2023-05-10T05:03:35;98719.13;;;22.61;59.37
77526;BME280;66627;29.424;-98.496;2023-05-10T05:06:01;98725.42;;;22.82;59.26
77526;BME280;66627;29.424;-98.496;2023-05-10T05:08:26;98726.06;;;22.70;59.10
77526;BME280;66627;29.424;-98.496;2023-05-10T05:10:52;98726.60;;;22.91;58.78
77526;BME280;66627;29.424;-98.496;2023-05-10T05:13:18;98726.60;;;23.04;58.53
77526;BME280;66627;29.424;-98.496;2023-05-10T05:15:43;98730.63;;;22.68;58.53
77526;BME280;66627;29.424;-98.496;2023-05-10T05:18:08;98736.99;;;22.65;58.82
77526;BME280;66627;29.424;-98.496;2023-05-10T05:20:33;98739.99;;;22.49;59.04
77526;BME280;66627;29.424;-98.496;2023-05-10T05:22:59;98729.46;;;22.16;59.32
77526;BME280;66627;29.424;-98.496;2023-05-10T05:25:25;98728.28;;;21.50;61.52
77526;BME280;66627;29.424;-98.496;2023-05-10T05:27:50;98727.98;;;21.98;60.62
77526;BME280;66627;29.424;-98.496;2023-05-10T05:30:15;98728.10;;;22.18;59.74
77526;BME280;66627;29.424;-98.496;2023-05-10T05:32:40;98732.17;;;21.94;60.50
77526;BME280;66627;29.424;-98.496;2023-05-10T05:35:06;98731.56;;;22.32;59.91
77526;BME280;66627;29.424;-98.496;2023-05-10T05:37:31;98736.08;;;21.71;60.36
77526;BME280;66627;29.424;-98.496;2023-05-10T05:39:56;98743.77;;;21.93;59.68
77526;BME280;66627;29.424;-98.496;2023-05-10T05:42:22;98744.91;;;22.30;59.15
77526;BME280;66627;29.424;-98.496;2023-05-10T05:44:48;98740.79;;;22.33;59.06
77526;BME280;66627;29.424;-98.496;2023-05-10T05:47:13;98732.78;;;22.00;58.98
77526;BME280;66627;29.424;-98.496;2023-05-10T05:49:39;98729.92;;;21.67;59.41
77526;BME280;66627;29.424;-98.496;2023-05-10T05:52:05;98728.11;;;21.55;59.47
77526;BME280;66627;29.424;-98.496;2023-05-10T05:54:30;98724.53;;;22.03;59.57
77526;BME280;66627;29.424;-98.496;2023-05-10T05:56:56;98718.39;;;22.12;58.74
77526;BME280;66627;29.424;-98.496;2023-05-10T05:59:21;98712.01;;;22.35;58.57
77526;BME280;66627;29.424;-98.496;2023-05-10T06:01:46;98701.27;;;21.89;58.67
77526;BME280;66627;29.424;-98.496;2023-05-10T06:04:11;98696.67;;;22.37;58.13
77526;BME280;66627;29.424;-98.496;2023-05-10T06:06:42;98700.41;;;22.43;58.01
77526;BME280;66627;29.424;-98.496;2023-05-10T06:09:02;98706.00;;;21.66;58.90
77526;BME280;66627;29.424;-98.496;2023-05-10T06:11:28;98709.74;;;21.84;58.69
77526;BME280;66627;29.424;-98.496;2023-05-10T06:13:53;98712.90;;;21.68;59.12
77526;BME280;66627;29.424;-98.496;2023-05-10T06:16:19;98708.37;;;22.19;58.61
77526;BME280;66627;29.424;-98.496;2023-05-10T06:18:44;98706.94;;;21.90;58.62
77526;BME280;66627;29.424;-98.496;2023-05-10T06:21:14;98708.35;;;22.42;58.21
77526;BME280;66627;29.424;-98.496;2023-05-10T06:23:35;98704.61;;;22.08;58.56
77526;BME280;66627;29.424;-98.496;2023-05-10T06:26:01;98701.02;;;22.79;58.22
77526;BME280;66627;29.424;-98.496;2023-05-10T06:28:27;98697.56;;;22.08;58.72
77526;BME280;66627;29.424;-98.496;2023-05-10T06:30:51;98692.94;;;22.72;58.33
77526;BME280;66627;29.424;-98.496;2023-05-10T06:33:17;98691.31;;;22.52;58.78
77526;BME280;66627;29.424;-98.496;2023-05-10T06:35:42;98689.85;;;22.44;58.39
77526;BME280;66627;29.424;-98.496;2023-05-10T06:38:08;98687.75;;;22.71;58.12
77526;BME280;66627;29.424;-98.496;2023-05-10T06:40:33;98681.71;;;22.72;58.19
77526;BME280;66627;29.424;-98.496;2023-05-10T06:42:59;98674.79;;;22.53;58.42
77526;BME280;66627;29.424;-98.496;2023-05-10T06:45:24;98672.77;;;22.55;58.45
77526;BME280;66627;29.424;-98.496;2023-05-10T06:47:49;98673.56;;;22.74;58.14
77526;BME280;66627;29.424;-98.496;2023-05-10T06:50:16;98671.17;;;22.92;57.88
77526;BME280;66627;29.424;-98.496;2023-05-10T06:52:40;98666.45;;;22.78;57.97
77526;BME280;66627;29.424;-98.496;2023-05-10T06:55:07;98666.93;;;22.71;58.04
77526;BME280;66627;29.424;-98.496;2023-05-10T06:57:31;98668.81;;;22.37;58.32
77526;BME280;66627;29.424;-98.496;2023-05-10T06:59:57;98668.55;;;22.93;57.74
77526;BME280;66627;29.424;-98.496;2023-05-10T07:02:22;98668.16;;;22.94;57.66
77526;BME280;66627;29.424;-98.496;2023-05-10T07:04:48;98670.42;;;22.74;57.88
77526;BME280;66627;29.424;-98.496;2023-05-10T07:07:13;98662.12;;;22.30;58.51
77526;BME280;66627;29.424;-98.496;2023-05-10T07:09:39;98654.70;;;22.14;58.78
77526;BME280;66627;29.424;-98.496;2023-05-10T07:12:04;98645.50;;;22.22;58.68
77526;BME280;66627;29.424;-98.496;2023-05-10T07:14:29;98637.27;;;22.43;58.26
77526;BME280;66627;29.424;-98.496;2023-05-10T07:16:59;98628.74;;;22.40;58.39
77526;BME280;66627;29.424;-98.496;2023-05-10T07:19:20;98619.54;;;21.81;59.33
77526;BME280;66627;29.424;-98.496;2023-05-10T07:21:45;98620.70;;;21.40;60.06
77526;BME280;66627;29.424;-98.496;2023-05-10T07:24:10;98620.53;;;21.73;59.73
77526;BME280;66627;29.424;-98.496;2023-05-10T07:26:36;98620.66;;;22.24;58.97
77526;BME280;66627;29.424;-98.496;2023-05-10T07:29:02;98618.65;;;21.98;59.31
77526;BME280;66627;29.424;-98.496;2023-05-10T07:31:26;98612.08;;;22.15;58.12
77526;BME280;66627;29.424;-98.496;2023-05-10T07:33:52;98608.60;;;22.09;58.72
77526;BME280;66627;29.424;-98.496;2023-05-10T07:36:23;98606.87;;;22.27;58.72
77526;BME280;66627;29.424;-98.496;2023-05-10T07:38:43;98609.82;;;21.72;59.16
77526;BME280;66627;29.424;-98.496;2023-05-10T07:43:34;98597.09;;;21.99;59.14
77526;BME280;66627;29.424;-98.496;2023-05-10T07:46:00;98590.03;;;22.24;58.87
77526;BME280;66627;29.424;-98.496;2023-05-10T07:48:26;98581.85;;;22.44;58.71
77526;BME280;66627;29.424;-98.496;2023-05-10T07:50:51;98572.26;;;22.24;58.31
77526;BME280;66627;29.424;-98.496;2023-05-10T07:53:17;98565.96;;;22.33;58.63
77526;BME280;66627;29.424;-98.496;2023-05-10T07:55:42;98559.35;;;21.34;59.68
77526;BME280;66627;29.424;-98.496;2023-05-10T07:58:07;98555.61;;;21.87;59.21
77526;BME280;66627;29.424;-98.496;2023-05-10T08:00:33;98556.06;;;22.09;59.12
77526;BME280;66627;29.424;-98.496;2023-05-10T08:02:59;98558.09;;;21.00;60.31
77526;BME280;66627;29.424;-98.496;2023-05-10T08:05:24;98561.84;;;21.17;61.13
77526;BME280;66627;29.424;-98.496;2023-05-10T08:07:49;98564.35;;;21.06;61.14
77526;BME280;66627;29.424;-98.496;2023-05-10T08:10:15;98570.02;;;21.34;60.70
77526;BME280;66627;29.424;-98.496;2023-05-10T08:12:40;98564.48;;;21.75;59.95
77526;BME280;66627;29.424;-98.496;2023-05-10T08:15:06;98562.46;;;22.01;59.86
77526;BME280;66627;29.424;-98.496;2023-05-10T08:17:31;98560.46;;;20.81;61.47
77526;BME280;66627;29.424;-98.496;2023-05-10T08:19:56;98557.89;;;20.86;61.18
77526;BME280;66627;29.424;-98.496;2023-05-10T08:22:22;98552.41;;;21.30;60.69
77526;BME280;66627;29.424;-98.496;2023-05-10T08:24:47;98554.64;;;21.88;60.12
77526;BME280;66627;29.424;-98.496;2023-05-10T08:27:13;98556.03;;;22.11;59.44
77526;BME280;66627;29.424;-98.496;2023-05-10T08:29:38;98557.20;;;22.32;59.06
77526;BME280;66627;29.424;-98.496;2023-05-10T08:32:03;98557.36;;;21.54;59.89
77526;BME280;66627;29.424;-98.496;2023-05-10T08:34:29;98562.81;;;22.16;59.04
77526;BME280;66627;29.424;-98.496;2023-05-10T08:36:55;98565.06;;;22.12;59.07
77526;BME280;66627;29.424;-98.496;2023-05-10T08:39:20;98565.06;;;22.59;58.36
77526;BME280;66627;29.424;-98.496;2023-05-10T08:41:47;98570.25;;;22.24;58.76
77526;BME280;66627;29.424;-98.496;2023-05-10T08:44:11;98572.33;;;22.42;58.48
77526;BME280;66627;29.424;-98.496;2023-05-10T08:46:37;98572.62;;;22.10;59.02
77526;BME280;66627;29.424;-98.496;2023-05-10T08:49:02;98571.53;;;22.03;58.86
77526;BME280;66627;29.424;-98.496;2023-05-10T08:51:28;98575.42;;;21.96;58.85
77526;BME280;66627;29.424;-98.496;2023-05-10T08:53:53;98567.51;;;22.04;58.60
77526;BME280;66627;29.424;-98.496;2023-05-10T08:56:19;98563.48;;;22.37;58.20
77526;BME280;66627;29.424;-98.496;2023-05-10T08:58:44;98562.82;;;21.66;58.97
77526;BME280;66627;29.424;-98.496;2023-05-10T09:01:09;98558.99;;;20.63;60.89
77526;BME280;66627;29.424;-98.496;2023-05-10T09:03:40;98548.93;;;21.85;59.77
77526;BME280;66627;29.424;-98.496;2023-05-10T09:06:00;98546.44;;;21.82;59.24
77526;BME280;66627;29.424;-98.496;2023-05-10T09:08:26;98547.41;;;21.83;58.82
77526;BME280;66627;29.424;-98.496;2023-05-10T09:10:50;98548.97;;;21.85;59.46
77526;BME280;66627;29.424;-98.496;2023-05-10T09:13:17;98552.39;;;21.71;59.88
77526;BME280;66627;29.424;-98.496;2023-05-10T09:15:42;98552.97;;;22.24;59.21
77526;BME280;66627;29.424;-98.496;2023-05-10T09:18:07;98544.88;;;22.35;58.46
77526;BME280;66627;29.424;-98.496;2023-05-10T09:20:33;98543.41;;;21.68;59.14
77526;BME280;66627;29.424;-98.496;2023-05-10T09:22:58;98547.51;;;20.86;60.49
77526;BME280;66627;29.424;-98.496;2023-05-10T09:25:23;98547.66;;;21.13;60.54
77526;BME280;66627;29.424;-98.496;2023-05-10T09:27:49;98550.13;;;21.15;60.62
77526;BME280;66627;29.424;-98.496;2023-05-10T09:30:17;98553.78;;;21.72;59.34
77526;BME280;66627;29.424;-98.496;2023-05-10T09:32:41;98553.02;;;21.73;59.27
77526;BME280;66627;29.424;-98.496;2023-05-10T09:35:09;98556.23;;;22.18;58.83
77526;BME280;66627;29.424;-98.496;2023-05-10T09:37:30;98564.90;;;22.47;58.43
77526;BME280;66627;29.424;-98.496;2023-05-10T09:39:55;98564.88;;;22.34;58.45
77526;BME280;66627;29.424;-98.496;2023-05-10T09:42:21;98570.49;;;21.63;59.58
77526;BME280;66627;29.424;-98.496;2023-05-10T09:44:47;98576.60;;;21.15;60.30
77526;BME280;66627;29.424;-98.496;2023-05-10T09:47:17;98571.44;;;21.88;59.74
77526;BME280;66627;29.424;-98.496;2023-05-10T09:49:38;98569.41;;;21.99;59.41
77526;BME280;66627;29.424;-98.496;2023-05-10T09:52:05;98571.40;;;22.38;58.77
77526;BME280;66627;29.424;-98.496;2023-05-10T09:54:33;98575.53;;;22.28;58.57
77526;BME280;66627;29.424;-98.496;2023-05-10T09:56:54;98577.38;;;22.50;58.26
77526;BME280;66627;29.424;-98.496;2023-05-10T09:59:19;98580.43;;;22.27;57.68
77526;BME280;66627;29.424;-98.496;2023-05-10T10:01:50;98576.72;;;22.81;57.83
77526;BME280;66627;29.424;-98.496;2023-05-10T10:04:11;98573.83;;;22.52;58.12
77526;BME280;66627;29.424;-98.496;2023-05-10T10:06:37;98566.92;;;22.25;57.96
77526;BME280;66627;29.424;-98.496;2023-05-10T10:09:01;98558.56;;;22.47;57.88
77526;BME280;66627;29.424;-98.496;2023-05-10T10:11:26;98558.43;;;22.27;57.77
77526;BME280;66627;29.424;-98.496;2023-05-10T10:13:52;98562.58;;;22.50;57.70
77526;BME280;66627;29.424;-98.496;2023-05-10T10:16:17;98566.05;;;21.72;58.53
77526;BME280;66627;29.424;-98.496;2023-05-10T10:18:42;98569.09;;;21.67;58.68
77526;BME280;66627;29.424;-98.496;2023-05-10T10:21:08;98566.68;;;21.65;59.08
77526;BME280;66627;29.424;-98.496;2023-05-10T10:23:33;98557.88;;;21.90;58.68
77526;BME280;66627;29.424;-98.496;2023-05-10T10:26:03;98561.72;;;21.94;59.05
77526;BME280;66627;29.424;-98.496;2023-05-10T10:28:37;98562.54;;;22.31;58.88
77526;BME280;66627;29.424;-98.496;2023-05-10T10:30:51;98572.19;;;22.65;58.22
77526;BME280;66627;29.424;-98.496;2023-05-10T10:35:40;98580.93;;;21.89;58.95
77526;BME280;66627;29.424;-98.496;2023-05-10T10:38:08;98576.50;;;21.86;59.35
77526;BME280;66627;29.424;-98.496;2023-05-10T10:40:31;98571.22;;;22.29;58.72
77526;BME280;66627;29.424;-98.496;2023-05-10T10:42:57;98565.24;;;22.17;58.68
77526;BME280;66627;29.424;-98.496;2023-05-10T10:45:26;98564.57;;;21.66;59.25
77526;BME280;66627;29.424;-98.496;2023-05-10T10:47:47;98565.42;;;22.21;58.49
77526;BME280;66627;29.424;-98.496;2023-05-10T10:50:12;98562.45;;;22.40;59.03
77526;BME280;66627;29.424;-98.496;2023-05-10T10:52:39;98558.39;;;21.93;59.01
77526;BME280;66627;29.424;-98.496;2023-05-10T10:55:05;98544.77;;;22.64;57.89
77526;BME280;66627;29.424;-98.496;2023-05-10T11:02:33;98530.22;;;22.37;58.20
77526;BME280;66627;29.424;-98.496;2023-05-10T11:04:45;98527.76;;;22.37;57.80
77526;BME280;66627;29.424;-98.496;2023-05-10T11:07:18;98527.12;;;22.51;57.84
77526;BME280;66627;29.424;-98.496;2023-05-10T11:09:40;98528.02;;;22.67;57.85
77526;BME280;66627;29.424;-98.496;2023-05-10T11:12:08;98526.62;;;21.97;58.58
77526;BME280;66627;29.424;-98.496;2023-05-10T11:14:32;98529.10;;;22.33;58.10
77526;BME280;66627;29.424;-98.496;2023-05-10T11:16:53;98525.80;;;21.76;58.33
77526;BME280;66627;29.424;-98.496;2023-05-10T11:19:19;98525.96;;;21.22;59.87
77526;BME280;66627;29.424;-98.496;2023-05-10T11:21:48;98529.98;;;21.67;59.39
77526;BME280;66627;29.424;-98.496;2023-05-10T11:24:15;98533.41;;;21.57;59.07
77526;BME280;66627;29.424;-98.496;2023-05-10T11:26:36;98537.83;;;21.69;59.59
77526;BME280;66627;29.424;-98.496;2023-05-10T11:29:00;98540.67;;;22.12;58.80
77526;BME280;66627;29.424;-98.496;2023-05-10T11:31:26;98542.50;;;21.59;59.39
77526;BME280;66627;29.424;-98.496;2023-05-10T11:33:52;98547.11;;;21.29;59.75
77526;BME280;66627;29.424;-98.496;2023-05-10T11:36:24;98548.90;;;21.86;59.83
77526;BME280;66627;29.424;-98.496;2023-05-10T11:38:42;98549.35;;;21.95;59.31
77526;BME280;66627;29.424;-98.496;2023-05-10T11:41:09;98553.33;;;22.01;59.18
77526;BME280;66627;29.424;-98.496;2023-05-10T11:43:33;98556.88;;;22.01;59.29
77526;BME280;66627;29.424;-98.496;2023-05-10T11:45:59;98556.11;;;22.06;58.73
77526;BME280;66627;29.424;-98.496;2023-05-10T11:48:24;98559.80;;;22.17;58.93
77526;BME280;66627;29.424;-98.496;2023-05-10T11:50:50;98561.68;;;21.75;58.77
77526;BME280;66627;29.424;-98.496;2023-05-10T11:53:15;98563.23;;;21.84;59.08
77526;BME280;66627;29.424;-98.496;2023-05-10T11:55:41;98565.11;;;21.85;58.91
77526;BME280;66627;29.424;-98.496;2023-05-10T11:58:05;98571.04;;;21.56;59.47
77526;BME280;66627;29.424;-98.496;2023-05-10T12:00:32;98573.57;;;21.89;58.82
77526;BME280;66627;29.424;-98.496;2023-05-10T12:03:01;98582.72;;;21.42;59.71
77526;BME280;66627;29.424;-98.496;2023-05-10T12:05:22;98585.47;;;21.89;58.87
77526;BME280;66627;29.424;-98.496;2023-05-10T12:07:47;98589.10;;;22.28;58.72
77526;BME280;66627;29.424;-98.496;2023-05-10T12:10:14;98592.87;;;22.62;58.05
77526;BME280;66627;29.424;-98.496;2023-05-10T12:12:39;98591.93;;;21.90;58.92
77526;BME280;66627;29.424;-98.496;2023-05-10T12:15:04;98594.59;;;22.03;58.35
77526;BME280;66627;29.424;-98.496;2023-05-10T12:17:29;98594.13;;;21.67;59.08
77526;BME280;66627;29.424;-98.496;2023-05-10T12:19:54;98597.53;;;21.81;59.04
77526;BME280;66627;29.424;-98.496;2023-05-10T12:22:22;98602.12;;;21.78;58.64
77526;BME280;66627;29.424;-98.496;2023-05-10T12:24:46;98607.00;;;21.77;59.30
77526;BME280;66627;29.424;-98.496;2023-05-10T12:27:10;98603.23;;;22.04;58.59
77526;BME280;66627;29.424;-98.496;2023-05-10T12:29:35;98604.09;;;22.27;57.98
77526;BME280;66627;29.424;-98.496;2023-05-10T12:32:01;98605.42;;;22.33;58.57
77526;BME280;66627;29.424;-98.496;2023-05-10T12:34:29;98606.90;;;22.27;58.58
77526;BME280;66627;29.424;-98.496;2023-05-10T12:36:53;98606.21;;;21.97;58.42
77526;BME280;66627;29.424;-98.496;2023-05-10T12:39:17;98604.41;;;21.86;59.00
77526;BME280;66627;29.424;-98.496;2023-05-10T12:41:42;98610.25;;;21.99;59.02
77526;BME280;66627;29.424;-98.496;2023-05-10T12:44:08;98615.69;;;21.63;58.99
77526;BME280;66627;29.424;-98.496;2023-05-10T12:46:34;98621.02;;;21.96;58.32